sensor_id;sensor_type;location;lat;lon;timestamp;P1;P4;P2;P0;N10;N4;N25;N1;N05;TS
73340;SPS30;61578;52.002;5.468;2022-08-03T00:00:08;6.39;5.96;5.15;3.94;31.23;31.18;30.99;29.80;24.00;0.71
73340;SPS30;61578;52.002;5.468;2022-08-03T00:01:03;5.16;4.79;4.10;3.09;24.47;24.43;24.27;23.26;18.62;0.72
73340;SPS30;61578;52.002;5.468;2022-08-03T00:01:54;4.44;4.14;3.58;2.75;21.79;21.76;21.62;20.80;16.77;0.70
73340;SPS30;61578;52.002;5.468;2022-08-03T00:02:45;4.79;4.50;3.95;3.12;24.66;24.62;24.49;23.68;19.27;0.69
73340;SPS30;61578;52.002;5.468;2022-08-03T00:03:36;6.19;5.77;4.97;3.80;30.07;30.02;29.83;28.67;23.06;0.73
73340;SPS30;61578;52.002;5.468;2022-08-03T00:04:27;5.34;4.93;4.16;3.05;24.22;24.18;24.00;22.89;18.13;0.76
73340;SPS30;61578;52.002;5.468;2022-08-03T00:05:18;6.92;6.40;5.42;4.00;31.73;31.67;31.44;30.02;23.85;0.76
73340;SPS30;61578;52.002;5.468;2022-08-03T00:06:10;6.55;6.08;5.17;3.85;30.55;30.50;30.28;28.97;23.10;0.75
73340;SPS30;61578;52.002;5.468;2022-08-03T00:07:01;5.53;5.15;4.44;3.38;26.77;26.73;26.56;25.52;20.51;0.74
73340;SPS30;61578;52.002;5.468;2022-08-03T00:07:52;4.87;4.54;3.90;2.96;23.47;23.43;23.28;22.35;17.95;0.72
73340;SPS30;61578;52.002;5.468;2022-08-03T00:08:42;4.76;4.46;3.89;3.03;23.96;23.92;23.79;22.94;18.59;0.72
73340;SPS30;61578;52.002;5.468;2022-08-03T00:09:33;5.40;5.05;4.38;3.40;26.88;26.84;26.68;25.71;20.79;0.72
73340;SPS30;61578;52.002;5.468;2022-08-03T00:10:24;4.39;4.10;3.55;2.73;21.62;21.59;21.46;20.65;16.66;0.73
73340;SPS30;61578;52.002;5.468;2022-08-03T00:11:16;5.34;4.99;4.32;3.33;26.38;26.33;26.18;25.20;20.33;0.73
73340;SPS30;61578;52.002;5.468;2022-08-03T00:12:07;5.51;5.15;4.47;3.45;27.29;27.25;27.08;26.08;21.06;0.74
73340;SPS30;61578;52.002;5.468;2022-08-03T00:12:58;4.37;4.07;3.51;2.68;21.19;21.16;21.02;20.20;16.25;0.76
73340;SPS30;61578;52.002;5.468;2022-08-03T00:13:49;3.97;3.71;3.21;2.48;19.61;19.58;19.47;18.74;15.13;0.73
73340;SPS30;61578;52.002;5.468;2022-08-03T00:14:40;4.52;4.23;3.69;2.88;22.78;22.74;22.61;21.82;17.68;0.72
73340;SPS30;61578;52.002;5.468;2022-08-03T00:15:31;4.91;4.61;4.05;3.19;25.25;25.21;25.08;24.24;19.72;0.72
73340;SPS30;61578;52.002;5.468;2022-08-03T00:16:22;4.85;4.58;4.09;3.30;26.10;26.07;25.95;25.19;20.68;0.70
73340;SPS30;61578;52.002;5.468;2022-08-03T00:17:15;5.71;5.38;4.76;3.80;30.02;29.99;29.84;28.91;23.62;0.71
73340;SPS30;61578;52.002;5.468;2022-08-03T00:18:06;6.07;5.67;4.92;3.79;30.03;29.98;29.80;28.69;23.16;0.74
73340;SPS30;61578;52.002;5.468;2022-08-03T00:18:58;5.25;4.91;4.25;3.28;26.00;25.96;25.80;24.85;20.07;0.72
73340;SPS30;61578;52.002;5.468;2022-08-03T00:19:50;5.19;4.86;4.24;3.30;26.13;26.09;25.94;25.02;20.28;0.72
73340;SPS30;61578;52.002;5.468;2022-08-03T00:20:41;5.20;4.92;4.39;3.55;28.08;28.05;27.92;27.12;22.26;0.68
73340;SPS30;61578;52.002;5.468;2022-08-03T00:21:32;5.01;4.75;4.26;3.48;27.52;27.49;27.37;26.62;21.93;0.69
73340;SPS30;61578;52.002;5.468;2022-08-03T00:22:23;4.55;4.32;3.90;3.22;25.42;25.39;25.29;24.64;20.36;0.69
73340;SPS30;61578;52.002;5.468;2022-08-03T00:23:14;4.36;4.14;3.73;3.06;24.14;24.11;24.01;23.37;19.27;0.67
73340;SPS30;61578;52.002;5.468;2022-08-03T00:24:05;4.52;4.32;3.92;3.27;25.80;25.77;25.68;25.06;20.78;0.65
73340;SPS30;61578;52.002;5.468;2022-08-03T00:24:56;4.11;3.95;3.64;3.11;24.54;24.52;24.44;23.95;20.00;0.65
73340;SPS30;61578;52.002;5.468;2022-08-03T00:25:47;4.53;4.34;3.99;3.39;26.74;26.71;26.62;26.07;21.73;0.65
73340;SPS30;61578;52.002;5.468;2022-08-03T00:26:38;4.93;4.71;4.29;3.60;28.39;28.37;28.26;27.61;22.93;0.65
73340;SPS30;61578;52.002;5.468;2022-08-03T00:27:29;4.87;4.66;4.26;3.60;28.39;28.36;28.26;27.64;23.00;0.63
73340;SPS30;61578;52.002;5.468;2022-08-03T00:28:20;4.87;4.65;4.25;3.58;28.21;28.18;28.08;27.45;22.82;0.65
73340;SPS30;61578;52.002;5.468;2022-08-03T00:29:11;3.91;3.74;3.42;2.89;22.77;22.75;22.67;22.17;18.44;0.65
73340;SPS30;61578;52.002;5.468;2022-08-03T00:30:03;3.96;3.80;3.50;2.99;23.56;23.54;23.46;22.99;19.18;0.65
73340;SPS30;61578;52.002;5.468;2022-08-03T00:30:55;4.31;4.13;3.79;3.20;25.28;25.26;25.17;24.63;20.52;0.67
73340;SPS30;61578;52.002;5.468;2022-08-03T00:31:46;6.14;5.80;5.17;4.17;32.97;32.93;32.78;31.82;26.10;0.71
73340;SPS30;61578;52.002;5.468;2022-08-03T00:32:37;8.29;7.72;6.63;5.03;39.82;39.75;39.49;37.91;30.42;0.76
73340;SPS30;61578;52.002;5.468;2022-08-03T00:33:28;9.58;8.80;7.32;5.23;41.49;41.40;41.05;38.94;30.51;0.78
73340;SPS30;61578;52.002;5.468;2022-08-03T00:34:19;8.83;8.07;6.61;4.57;36.35;36.26;35.92;33.85;26.17;0.77
73340;SPS30;61578;52.002;5.468;2022-08-03T00:35:10;10.21;9.33;7.67;5.35;42.48;42.39;42.00;39.64;30.74;0.77
73340;SPS30;61578;52.002;5.468;2022-08-03T00:36:01;10.34;9.38;7.56;5.06;40.27;40.17;39.74;37.18;28.31;0.80
73340;SPS30;61578;52.002;5.468;2022-08-03T00:36:52;9.84;8.91;7.14;4.71;37.50;37.40;36.98;34.49;26.08;0.81
73340;SPS30;61578;52.002;5.468;2022-08-03T00:37:43;9.64;8.71;6.94;4.52;36.01;35.91;35.50;33.02;24.81;0.82
73340;SPS30;61578;52.002;5.468;2022-08-03T00:38:34;9.34;8.43;6.69;4.33;34.51;34.41;34.01;31.58;23.65;0.83
73340;SPS30;61578;52.002;5.468;2022-08-03T00:39:25;9.02;8.21;6.69;4.56;36.29;36.20;35.84;33.68;25.88;0.79
73340;SPS30;61578;52.002;5.468;2022-08-03T00:40:17;6.86;6.27;5.17;3.62;28.74;28.67;28.41;26.84;20.86;0.76
73340;SPS30;61578;52.002;5.468;2022-08-03T00:41:09;6.52;6.00;5.02;3.63;28.78;28.72;28.49;27.09;21.33;0.75
73340;SPS30;61578;52.002;5.468;2022-08-03T00:42:01;5.87;5.43;4.60;3.39;26.90;26.86;26.66;25.45;20.22;0.73
73340;SPS30;61578;52.002;5.468;2022-08-03T00:43:47;4.59;4.33;3.84;3.08;24.32;24.29;24.17;23.43;19.18;0.66
73340;SPS30;61578;52.002;5.468;2022-08-03T00:44:39;4.40;4.18;3.75;3.08;24.31;24.28;24.18;23.53;19.40;0.65
73340;SPS30;61578;52.002;5.468;2022-08-03T00:45:33;4.49;4.26;3.83;3.14;24.83;24.81;24.70;24.04;19.83;0.65
73340;SPS30;61578;52.002;5.468;2022-08-03T00:46:27;3.76;3.57;3.22;2.66;20.97;20.94;20.86;20.32;16.78;0.65
73340;SPS30;61578;52.002;5.468;2022-08-03T00:47:17;4.24;4.04;3.64;3.01;23.73;23.70;23.61;23.00;19.00;0.65
73340;SPS30;61578;52.002;5.468;2022-08-03T00:48:09;4.60;4.38;3.97;3.30;26.03;26.00;25.90;25.26;20.91;0.66
73340;SPS30;61578;52.002;5.468;2022-08-03T00:49:02;5.56;5.28;4.76;3.91;30.86;30.83;30.70;29.89;24.66;0.66
73340;SPS30;61578;52.002;5.468;2022-08-03T00:49:53;5.00;4.74;4.25;3.47;27.38;27.34;27.22;26.48;21.79;0.67
73340;SPS30;61578;52.002;5.468;2022-08-03T00:50:44;5.36;5.07;4.52;3.65;28.85;28.81;28.68;27.84;22.85;0.68
73340;SPS30;61578;52.002;5.468;2022-08-03T00:51:37;9.76;9.10;7.85;6.00;47.50;47.42;47.13;45.30;36.45;0.74
73340;SPS30;61578;52.002;5.468;2022-08-03T00:52:28;7.04;6.53;5.55;4.13;32.75;32.70;32.47;31.05;24.74;0.74
73340;SPS30;61578;52.002;5.468;2022-08-03T00:53:19;7.31;6.73;5.64;4.08;32.35;32.29;32.03;30.46;23.99;0.76
73340;SPS30;61578;52.002;5.468;2022-08-03T00:54:11;7.93;7.31;6.13;4.45;35.28;35.21;34.94;33.25;26.22;0.74
73340;SPS30;61578;52.002;5.468;2022-08-03T00:55:02;5.85;5.42;4.60;3.42;27.09;27.04;26.85;25.67;20.43;0.73
73340;SPS30;61578;52.002;5.468;2022-08-03T00:55:53;5.60;5.23;4.53;3.50;27.68;27.64;27.47;26.45;21.36;0.70
73340;SPS30;61578;52.002;5.468;2022-08-03T00:56:44;5.78;5.43;4.76;3.75;29.63;29.58;29.42;28.43;23.12;0.70
73340;SPS30;61578;52.002;5.468;2022-08-03T00:57:36;7.17;6.70;5.80;4.47;35.41;35.36;35.15;33.83;27.31;0.73
73340;SPS30;61578;52.002;5.468;2022-08-03T00:58:27;8.04;7.44;6.31;4.67;37.02;36.95;36.68;35.05;27.86;0.73
73340;SPS30;61578;52.002;5.468;2022-08-03T00:59:19;7.03;6.48;5.43;3.93;31.16;31.10;30.85;29.35;23.13;0.75
73340;SPS30;61578;52.002;5.468;2022-08-03T01:00:12;6.61;6.09;5.09;3.67;29.14;29.08;28.84;27.42;21.58;0.75
73340;SPS30;61578;52.002;5.468;2022-08-03T01:01:09;7.37;6.80;5.71;4.15;32.88;32.82;32.56;30.99;24.46;0.75
73340;SPS30;61578;52.002;5.468;2022-08-03T01:02:01;6.05;5.58;4.67;3.37;26.77;26.71;26.50;25.20;19.84;0.74
73340;SPS30;61578;52.002;5.468;2022-08-03T01:02:52;7.69;7.09;5.95;4.33;34.36;34.29;34.02;32.39;25.58;0.75
73340;SPS30;61578;52.002;5.468;2022-08-03T01:03:44;8.18;7.48;6.15;4.28;34.00;33.93;33.61;31.72;24.59;0.77
73340;SPS30;61578;52.002;5.468;2022-08-03T01:04:35;8.69;7.95;6.56;4.60;36.55;36.47;36.15;34.17;26.57;0.76
73340;SPS30;61578;52.002;5.468;2022-08-03T01:05:26;11.43;10.45;8.58;5.96;47.40;47.29;46.85;44.20;34.24;0.76
73340;SPS30;61578;52.002;5.468;2022-08-03T01:06:20;11.27;10.27;8.36;5.71;45.45;45.34;44.89;42.20;32.44;0.79
73340;SPS30;61578;52.002;5.468;2022-08-03T01:09:05;6.22;5.66;4.60;3.12;24.81;24.75;24.50;23.00;17.62;0.78
73340;SPS30;61578;52.002;5.468;2022-08-03T01:14:12;7.03;6.55;5.63;4.28;33.92;33.87;33.65;32.31;25.95;0.75
73340;SPS30;61578;52.002;5.468;2022-08-03T01:17:56;7.12;6.59;5.59;4.14;32.80;32.74;32.50;31.06;24.69;0.74
73340;SPS30;61578;52.002;5.468;2022-08-03T01:18:59;6.51;6.07;5.23;4.00;31.68;31.63;31.43;30.21;24.31;0.73
73340;SPS30;61578;52.002;5.468;2022-08-03T01:20:17;5.53;5.21;4.61;3.68;29.09;29.05;28.90;28.00;22.88;0.69
73340;SPS30;61578;52.002;5.468;2022-08-03T01:21:20;5.72;5.41;4.84;3.93;31.08;31.04;30.90;30.03;24.69;0.69
73340;SPS30;61578;52.002;5.468;2022-08-03T01:27:30;8.38;7.83;6.79;5.23;41.43;41.36;41.12;39.58;31.96;0.73
73340;SPS30;61578;52.002;5.468;2022-08-03T01:28:55;8.76;8.14;6.95;5.22;41.32;41.25;40.97;39.25;31.37;0.76
73340;SPS30;61578;52.002;5.468;2022-08-03T01:30:17;8.46;7.81;6.57;4.79;38.03;37.96;37.66;35.88;28.37;0.76
73340;SPS30;61578;52.002;5.468;2022-08-03T01:31:09;9.08;8.39;7.07;5.19;41.14;41.06;40.75;38.86;30.78;0.74
73340;SPS30;61578;52.002;5.468;2022-08-03T01:32:09;8.92;8.26;7.00;5.18;41.10;41.02;40.72;38.91;30.94;0.74
73340;SPS30;61578;52.002;5.468;2022-08-03T01:33:09;7.27;6.74;5.74;4.28;33.92;33.86;33.62;32.17;25.65;0.74
73340;SPS30;61578;52.002;5.468;2022-08-03T01:34:11;9.57;8.85;7.50;5.55;44.00;43.92;43.60;41.65;33.10;0.74
73340;SPS30;61578;52.002;5.468;2022-08-03T01:35:10;9.37;8.58;7.07;4.95;39.31;39.22;38.87;36.72;28.54;0.77
73340;SPS30;61578;52.002;5.468;2022-08-03T01:36:08;6.35;5.87;4.97;3.67;29.09;29.04;28.83;27.53;21.86;0.73
73340;SPS30;61578;52.002;5.468;2022-08-03T01:37:05;5.62;5.26;4.59;3.58;28.32;28.28;28.12;27.13;21.99;0.71
73340;SPS30;61578;52.002;5.468;2022-08-03T01:38:03;5.28;5.01;4.52;3.72;29.34;29.31;29.19;28.43;23.46;0.67
73340;SPS30;61578;52.002;5.468;2022-08-03T01:39:02;6.57;6.20;5.51;4.44;35.08;35.04;34.87;33.83;27.73;0.68
73340;SPS30;61578;52.002;5.468;2022-08-03T01:39:58;6.75;6.37;5.65;4.54;35.88;35.84;35.66;34.59;28.32;0.68
73340;SPS30;61578;52.002;5.468;2022-08-03T01:40:55;6.65;6.27;5.54;4.41;34.90;34.85;34.67;33.58;27.43;0.69
73340;SPS30;61578;52.002;5.468;2022-08-03T01:42:00;6.06;5.71;5.06;4.04;31.97;31.93;31.77;30.79;25.17;0.69
73340;SPS30;61578;52.002;5.468;2022-08-03T01:42:58;5.38;5.13;4.65;3.88;30.62;30.59;30.47;29.74;24.65;0.67
73340;SPS30;61578;52.002;5.468;2022-08-03T01:43:53;6.53;6.18;5.53;4.49;35.51;35.47;35.31;34.32;28.22;0.71
73340;SPS30;61578;52.002;5.468;2022-08-03T01:44:50;8.07;7.55;6.56;5.09;40.26;40.20;39.96;38.51;31.15;0.73
73340;SPS30;61578;52.002;5.468;2022-08-03T01:45:45;8.54;7.95;6.82;5.16;40.90;40.84;40.57;38.93;31.22;0.73
73340;SPS30;61578;52.002;5.468;2022-08-03T01:46:38;10.23;9.45;7.97;5.85;46.41;46.32;45.98;43.85;34.74;0.75
73340;SPS30;61578;52.002;5.468;2022-08-03T01:47:33;11.07;10.13;8.33;5.81;46.17;46.07;45.65;43.10;33.44;0.79
73340;SPS30;61578;52.002;5.468;2022-08-03T01:48:25;12.87;11.68;9.42;6.31;50.22;50.09;49.56;46.38;35.33;0.83
73340;SPS30;61578;52.002;5.468;2022-08-03T01:49:18;12.45;11.22;8.90;5.72;45.64;45.51;44.97;41.71;31.16;0.83
73340;SPS30;61578;52.002;5.468;2022-08-03T01:50:11;12.27;11.09;8.84;5.75;45.86;45.73;45.21;42.05;31.61;0.82
73340;SPS30;61578;52.002;5.468;2022-08-03T01:51:05;8.94;8.13;6.58;4.45;35.38;35.29;34.93;32.75;25.05;0.81
73340;SPS30;61578;52.002;5.468;2022-08-03T01:51:59;10.72;9.75;7.91;5.37;42.70;42.59;42.16;39.57;30.32;0.80
73340;SPS30;61578;52.002;5.468;2022-08-03T01:52:55;13.56;12.20;9.62;6.12;48.80;48.65;48.05;44.44;32.99;0.82
73340;SPS30;61578;52.002;5.468;2022-08-03T01:53:49;10.49;9.44;7.45;4.75;37.90;37.79;37.32;34.54;25.68;0.83
73340;SPS30;61578;52.002;5.468;2022-08-03T01:54:44;10.35;9.37;7.52;4.98;39.63;39.52;39.09;36.49;27.64;0.81
73340;SPS30;61578;52.002;5.468;2022-08-03T01:55:42;8.30;7.59;6.24;4.34;34.49;34.41;34.09;32.17;24.93;0.78
73340;SPS30;61578;52.002;5.468;2022-08-03T01:56:38;8.15;7.49;6.23;4.45;35.34;35.26;34.97;33.17;25.99;0.75
73340;SPS30;61578;52.002;5.468;2022-08-03T01:57:32;8.48;7.79;6.49;4.65;36.91;36.83;36.52;34.67;27.19;0.76
73340;SPS30;61578;52.002;5.468;2022-08-03T01:58:28;7.32;6.76;5.71;4.20;33.27;33.21;32.96;31.45;24.93;0.76
73340;SPS30;61578;52.002;5.468;2022-08-03T01:59:23;7.11;6.58;5.57;4.12;32.69;32.63;32.40;30.95;24.60;0.77
73340;SPS30;61578;52.002;5.468;2022-08-03T02:00:16;8.18;7.59;6.47;4.84;38.33;38.27;38.00;36.37;29.03;0.76
73340;SPS30;61578;52.002;5.468;2022-08-03T02:01:08;9.13;8.52;7.34;5.62;44.47;44.40;44.12;42.41;34.13;0.75
73340;SPS30;61578;52.002;5.468;2022-08-03T02:02:03;9.82;9.10;7.72;5.74;45.47;45.39;45.06;43.08;34.29;0.77
73340;SPS30;61578;52.002;5.468;2022-08-03T02:02:58;9.50;8.71;7.21;5.09;40.44;40.35;40.00;37.86;29.53;0.80
73340;SPS30;61578;52.002;5.468;2022-08-03T02:03:56;10.93;9.94;8.06;5.46;43.41;43.30;42.87;40.21;30.79;0.83
73340;SPS30;61578;52.002;5.468;2022-08-03T02:04:50;12.72;11.49;9.15;5.95;47.43;47.30;46.75;43.47;32.66;0.86
73340;SPS30;61578;52.002;5.468;2022-08-03T02:05:47;10.84;9.82;7.88;5.21;41.50;41.39;40.93;38.20;28.93;0.84
73340;SPS30;61578;52.002;5.468;2022-08-03T02:06:44;7.14;6.51;5.31;3.65;29.01;28.94;28.66;26.97;20.79;0.81
73340;SPS30;61578;52.002;5.468;2022-08-03T02:07:41;7.32;6.74;5.65;4.09;32.44;32.38;32.12;30.55;24.07;0.77
73340;SPS30;61578;52.002;5.468;2022-08-03T02:08:38;7.95;7.35;6.22;4.60;36.46;36.39;36.13;34.50;27.41;0.77
73340;SPS30;61578;52.002;5.468;2022-08-03T02:09:34;7.12;6.61;5.63;4.21;33.39;33.33;33.10;31.69;25.30;0.74
73340;SPS30;61578;52.002;5.468;2022-08-03T02:10:30;8.18;7.63;6.57;5.02;39.74;39.68;39.43;37.89;30.48;0.74
73340;SPS30;61578;52.002;5.468;2022-08-03T02:11:26;8.41;7.83;6.72;5.09;40.35;40.28;40.02;38.40;30.81;0.75
73340;SPS30;61578;52.002;5.468;2022-08-03T02:12:22;8.92;8.29;7.11;5.38;42.59;42.52;42.24;40.52;32.48;0.73
73340;SPS30;61578;52.002;5.468;2022-08-03T02:13:18;8.71;8.10;6.92;5.21;41.31;41.24;40.97;39.27;31.42;0.73
73340;SPS30;61578;52.002;5.468;2022-08-03T02:14:12;9.46;8.71;7.29;5.27;41.78;41.70;41.36;39.32;30.95;0.76
73340;SPS30;61578;52.002;5.468;2022-08-03T02:15:06;10.05;9.27;7.79;5.67;44.98;44.89;44.54;42.42;33.50;0.75
73340;SPS30;61578;52.002;5.468;2022-08-03T02:16:04;8.49;7.85;6.63;4.88;38.69;38.62;38.33;36.58;29.01;0.73
73340;SPS30;61578;52.002;5.468;2022-08-03T02:16:56;9.30;8.62;7.32;5.45;43.18;43.10;42.80;40.92;32.60;0.74
73340;SPS30;61578;52.002;5.468;2022-08-03T02:17:50;10.39;9.57;8.00;5.77;45.77;45.68;45.31;43.07;33.88;0.78
73340;SPS30;61578;52.002;5.468;2022-08-03T02:18:44;14.11;12.71;10.06;6.44;51.37;51.22;50.60;46.88;34.94;0.85
73340;SPS30;61578;52.002;5.468;2022-08-03T02:19:39;10.55;9.52;7.57;4.90;39.09;38.98;38.52;35.79;26.83;0.83
73340;SPS30;61578;52.002;5.468;2022-08-03T02:20:34;8.30;7.60;6.28;4.42;35.11;35.04;34.73;32.85;25.59;0.75
73340;SPS30;61578;52.002;5.468;2022-08-03T02:21:29;6.47;6.02;5.17;3.92;31.02;30.97;30.76;29.52;23.68;0.71
73340;SPS30;61578;52.002;5.468;2022-08-03T02:22:26;6.55;6.18;5.49;4.41;34.87;34.83;34.66;33.61;27.53;0.69
73340;SPS30;61578;52.002;5.468;2022-08-03T02:23:21;7.02;6.64;5.92;4.80;37.92;37.88;37.70;36.62;30.08;0.70
73340;SPS30;61578;52.002;5.468;2022-08-03T02:24:12;6.53;6.16;5.45;4.36;34.50;34.46;34.29;33.23;27.18;0.73
73340;SPS30;61578;52.002;5.468;2022-08-03T02:25:03;6.02;5.71;5.13;4.20;33.17;33.13;32.99;32.10;26.46;0.69
73340;SPS30;61578;52.002;5.468;2022-08-03T02:25:58;7.29;6.90;6.15;4.98;39.37;39.32;39.14;38.01;31.21;0.71
73340;SPS30;61578;52.002;5.468;2022-08-03T02:26:56;7.20;6.78;5.98;4.76;37.66;37.61;37.42;36.23;29.58;0.71
73340;SPS30;61578;52.002;5.468;2022-08-03T02:27:51;7.96;7.46;6.51;5.07;40.14;40.09;39.86;38.45;31.17;0.74
73340;SPS30;61578;52.002;5.468;2022-08-03T02:28:51;5.50;5.18;4.59;3.66;28.97;28.93;28.79;27.90;22.80;0.71
73340;SPS30;61578;52.002;5.468;2022-08-03T02:29:52;5.77;5.49;4.96;4.10;32.38;32.34;32.21;31.40;25.96;0.69
73340;SPS30;61578;52.002;5.468;2022-08-03T02:30:57;6.22;5.97;5.49;4.68;36.91;36.87;36.76;36.00;30.04;0.67
73340;SPS30;61578;52.002;5.468;2022-08-03T02:32:01;4.85;4.68;4.35;3.76;29.68;29.66;29.58;29.04;24.34;0.66
73340;SPS30;61578;52.002;5.468;2022-08-03T02:32:54;6.25;6.03;5.61;4.85;38.24;38.21;38.10;37.41;31.36;0.66
73340;SPS30;61578;52.002;5.468;2022-08-03T02:33:55;7.08;6.77;6.17;5.18;40.85;40.81;40.66;39.73;33.00;0.69
73340;SPS30;61578;52.002;5.468;2022-08-03T02:34:52;10.05;9.40;8.16;6.32;50.02;49.95;49.65;47.84;38.67;0.73
73340;SPS30;61578;52.002;5.468;2022-08-03T02:35:49;11.20;10.33;8.68;6.32;50.11;50.01;49.62;47.25;37.32;0.77
73340;SPS30;61578;52.002;5.468;2022-08-03T02:36:45;11.16;10.21;8.41;5.88;46.75;46.64;46.22;43.66;33.91;0.80
73340;SPS30;61578;52.002;5.468;2022-08-03T02:37:43;8.61;7.93;6.65;4.82;38.25;38.17;37.87;36.03;28.41;0.76
73340;SPS30;61578;52.002;5.468;2022-08-03T02:38:42;11.77;10.84;9.09;6.60;52.32;52.22;51.81;49.30;38.88;0.77
73340;SPS30;61578;52.002;5.468;2022-08-03T02:39:41;15.12;13.78;11.23;7.69;61.14;60.99;60.39;56.79;43.70;0.81
73340;SPS30;61578;52.002;5.468;2022-08-03T02:40:36;14.03;12.65;10.03;6.46;51.47;51.33;50.72;47.04;35.15;0.84
73340;SPS30;61578;52.002;5.468;2022-08-03T02:41:38;11.81;10.71;8.63;5.77;45.92;45.80;45.31;42.39;32.25;0.82
73340;SPS30;61578;52.002;5.468;2022-08-03T02:42:35;9.11;8.39;7.02;5.08;40.28;40.20;39.88;37.92;29.86;0.76
73340;SPS30;61578;52.002;5.468;2022-08-03T02:43:32;10.04;9.25;7.77;5.65;44.80;44.71;44.36;42.23;33.33;0.76
73340;SPS30;61578;52.002;5.468;2022-08-03T02:44:28;8.69;8.10;6.99;5.34;42.27;42.20;41.94;40.31;32.43;0.71
73340;SPS30;61578;52.002;5.468;2022-08-03T02:45:25;10.10;9.45;8.21;6.37;50.41;50.34;50.04;48.23;39.01;0.73
73340;SPS30;61578;52.002;5.468;2022-08-03T02:46:19;11.27;10.44;8.88;6.62;52.46;52.36;51.99;49.74;39.64;0.77
73340;SPS30;61578;52.002;5.468;2022-08-03T02:47:18;10.40;9.57;8.00;5.77;45.81;45.71;45.34;43.10;33.91;0.79
73340;SPS30;61578;52.002;5.468;2022-08-03T02:48:11;10.94;10.03;8.29;5.84;46.38;46.28;45.87;43.39;33.81;0.80
73340;SPS30;61578;52.002;5.468;2022-08-03T02:49:13;14.36;13.10;10.69;7.34;58.36;58.22;57.66;54.25;41.80;0.81
73340;SPS30;61578;52.002;5.468;2022-08-03T02:50:11;10.87;10.02;8.39;6.07;48.14;48.05;47.66;45.33;35.71;0.76
73340;SPS30;61578;52.002;5.468;2022-08-03T02:51:05;7.45;6.90;5.85;4.34;34.42;34.36;34.12;32.61;25.95;0.73
73340;SPS30;61578;52.002;5.468;2022-08-03T02:51:58;8.13;7.61;6.64;5.18;41.00;40.94;40.71;39.27;31.84;0.71
73340;SPS30;61578;52.002;5.468;2022-08-03T02:52:53;8.26;7.79;6.91;5.54;43.82;43.77;43.55;42.23;34.57;0.69
73340;SPS30;61578;52.002;5.468;2022-08-03T02:53:47;7.41;7.05;6.35;5.24;41.36;41.32;41.15;40.09;33.11;0.67
73340;SPS30;61578;52.002;5.468;2022-08-03T02:54:41;8.57;8.19;7.45;6.24;49.25;49.20;49.02;47.88;39.74;0.69
73340;SPS30;61578;52.002;5.468;2022-08-03T02:55:37;7.04;6.71;6.07;5.04;39.82;39.78;39.62;38.65;31.99;0.69
73340;SPS30;61578;52.002;5.468;2022-08-03T02:56:31;6.68;6.39;5.86;4.95;39.08;39.05;38.92;38.07;31.70;0.66
73340;SPS30;61578;52.002;5.468;2022-08-03T02:57:26;7.95;7.57;6.86;5.69;44.90;44.86;44.68;43.57;36.06;0.69
73340;SPS30;61578;52.002;5.468;2022-08-03T02:58:20;7.94;7.47;6.57;5.21;41.20;41.14;40.93;39.60;32.28;0.72
73340;SPS30;61578;52.002;5.468;2022-08-03T02:59:15;7.16;6.73;5.92;4.68;37.02;36.97;36.77;35.56;28.96;0.70
73340;SPS30;61578;52.002;5.468;2022-08-03T03:00:11;6.04;5.74;5.15;4.22;33.36;33.32;33.18;32.29;26.62;0.67
73340;SPS30;61578;52.002;5.468;2022-08-03T03:01:03;5.26;5.02;4.55;3.79;29.94;29.91;29.80;29.08;24.10;0.68
73340;SPS30;61578;52.002;5.468;2022-08-03T03:01:56;5.41;5.18;4.76;4.04;31.87;31.84;31.74;31.07;25.90;0.65
73340;SPS30;61578;52.002;5.468;2022-08-03T03:02:51;4.78;4.61;4.29;3.71;29.22;29.19;29.11;28.59;23.97;0.63
73340;SPS30;61578;52.002;5.468;2022-08-03T03:03:47;4.79;4.65;4.38;3.85;30.34;30.32;30.24;29.78;25.09;0.63
73340;SPS30;61578;52.002;5.468;2022-08-03T03:04:41;5.14;5.01;4.76;4.24;33.38;33.36;33.30;32.85;27.78;0.61
73340;SPS30;61578;52.002;5.468;2022-08-03T03:05:33;4.87;4.76;4.53;4.05;31.92;31.90;31.84;31.43;26.61;0.60
73340;SPS30;61578;52.002;5.468;2022-08-03T03:06:26;5.31;5.22;5.05;4.62;36.34;36.32;36.27;35.93;30.60;0.59
73340;SPS30;61578;52.002;5.468;2022-08-03T03:07:19;6.22;6.13;5.96;5.48;43.13;43.11;43.06;42.69;36.43;0.60
73340;SPS30;61578;52.002;5.468;2022-08-03T03:08:12;7.27;7.09;6.76;6.05;47.68;47.65;47.56;46.96;39.77;0.64
73340;SPS30;61578;52.002;5.468;2022-08-03T03:09:05;7.76;7.46;6.90;5.90;46.55;46.51;46.37;45.46;37.99;0.68
73340;SPS30;61578;52.002;5.468;2022-08-03T03:09:58;7.99;7.60;6.86;5.66;44.73;44.68;44.50;43.36;35.83;0.69
73340;SPS30;61578;52.002;5.468;2022-08-03T03:10:52;8.47;8.03;7.21;5.90;46.57;46.52;46.32;45.06;37.12;0.71
73340;SPS30;61578;52.002;5.468;2022-08-03T03:11:48;8.06;7.67;6.92;5.70;45.04;44.99;44.81;43.66;36.06;0.67
73340;SPS30;61578;52.002;5.468;2022-08-03T03:12:44;8.27;7.86;7.08;5.83;46.02;45.97;45.78;44.59;36.81;0.68
73340;SPS30;61578;52.002;5.468;2022-08-03T03:13:40;8.80;8.36;7.51;6.15;48.59;48.53;48.32;47.03;38.77;0.68
73340;SPS30;61578;52.002;5.468;2022-08-03T03:14:36;8.08;7.69;6.94;5.74;45.32;45.27;45.08;43.94;36.32;0.68
73340;SPS30;61578;52.002;5.468;2022-08-03T03:15:28;7.62;7.24;6.50;5.32;42.02;41.97;41.79;40.67;33.51;0.70
73340;SPS30;61578;52.002;5.468;2022-08-03T03:16:25;7.78;7.39;6.66;5.49;43.32;43.28;43.10;41.98;34.66;0.69
73340;SPS30;61578;52.002;5.468;2022-08-03T03:17:20;6.91;6.60;6.02;5.05;39.84;39.81;39.66;38.75;32.18;0.69
73340;SPS30;61578;52.002;5.468;2022-08-03T03:18:15;6.54;6.27;5.75;4.87;38.44;38.40;38.27;37.46;31.21;0.66
73340;SPS30;61578;52.002;5.468;2022-08-03T03:19:07;6.47;6.25;5.83;5.06;39.91;39.87;39.77;39.08;32.80;0.66
73340;SPS30;61578;52.002;5.468;2022-08-03T03:20:03;7.41;7.15;6.64;5.74;45.24;45.21;45.08;44.26;37.09;0.66
73340;SPS30;61578;52.002;5.468;2022-08-03T03:20:58;9.02;8.64;7.92;6.70;52.83;52.78;52.60;51.47;42.85;0.68
73340;SPS30;61578;52.002;5.468;2022-08-03T03:21:52;9.96;9.45;8.48;6.94;54.83;54.77;54.54;53.06;43.72;0.68
73340;SPS30;61578;52.002;5.468;2022-08-03T03:22:48;9.72;9.19;8.18;6.61;52.23;52.17;51.93;50.41;41.36;0.69
73340;SPS30;61578;52.002;5.468;2022-08-03T03:23:41;9.14;8.58;7.52;5.91;46.78;46.71;46.46;44.89;36.49;0.70
73340;SPS30;61578;52.002;5.468;2022-08-03T03:24:33;10.27;9.62;8.37;6.51;51.48;51.41;51.11;49.28;39.89;0.71
73340;SPS30;61578;52.002;5.468;2022-08-03T03:25:28;8.23;7.71;6.71;5.22;41.31;41.24;41.01;39.54;32.02;0.72
73340;SPS30;61578;52.002;5.468;2022-08-03T03:26:22;7.85;7.42;6.61;5.34;42.17;42.12;41.92;40.70;33.39;0.71
73340;SPS30;61578;52.002;5.468;2022-08-03T03:27:13;6.39;6.12;5.59;4.71;37.19;37.15;37.02;36.20;30.10;0.68
73340;SPS30;61578;52.002;5.468;2022-08-03T03:28:05;6.67;6.44;6.00;5.21;41.07;41.04;40.93;40.21;33.75;0.66
73340;SPS30;61578;52.002;5.468;2022-08-03T03:28:57;5.48;5.37;5.16;4.68;36.85;36.83;36.77;36.38;30.91;0.61
73340;SPS30;61578;52.002;5.468;2022-08-03T03:29:48;6.49;6.37;6.14;5.58;43.90;43.87;43.81;43.35;36.86;0.60
73340;SPS30;61578;52.002;5.468;2022-08-03T03:30:40;6.36;6.22;5.97;5.40;42.53;42.51;42.44;41.96;35.63;0.61
73340;SPS30;61578;52.002;5.468;2022-08-03T03:31:32;6.30;6.14;5.84;5.22;41.11;41.09;41.01;40.47;34.25;0.61
73340;SPS30;61578;52.002;5.468;2022-08-03T03:32:30;6.56;6.41;6.13;5.51;43.42;43.40;43.32;42.80;36.29;0.61
73340;SPS30;61578;52.002;5.468;2022-08-03T03:33:22;6.61;6.48;6.23;5.65;44.46;44.43;44.37;43.89;37.29;0.60
73340;SPS30;61578;52.002;5.468;2022-08-03T03:34:14;6.22;6.10;5.87;5.32;41.89;41.86;41.80;41.35;35.14;0.61
73340;SPS30;61578;52.002;5.468;2022-08-03T03:35:05;6.67;6.53;6.27;5.67;44.62;44.59;44.52;44.02;37.38;0.63
73340;SPS30;61578;52.002;5.468;2022-08-03T03:35:59;7.19;7.02;6.70;6.01;47.30;47.27;47.18;46.60;39.48;0.65
73340;SPS30;61578;52.002;5.468;2022-08-03T03:36:51;7.65;7.40;6.93;6.05;47.67;47.64;47.52;46.73;39.28;0.65
73340;SPS30;61578;52.002;5.468;2022-08-03T03:37:42;6.53;6.32;5.92;5.17;40.71;40.68;40.58;39.91;33.55;0.65
73340;SPS30;61578;52.002;5.468;2022-08-03T03:38:34;7.41;7.16;6.68;5.81;45.80;45.77;45.65;44.86;37.66;0.66